createdAt,value
2023-03-16T00:00:13.797Z,-0.10
2023-03-16T00:02:42.470Z,-0.10
2023-03-16T00:05:13.888Z,-0.20
2023-03-16T00:07:42.994Z,-0.20
2023-03-16T00:10:13.679Z,-0.30
2023-03-16T00:12:43.843Z,-0.30
2023-03-16T00:15:12.817Z,-0.30
2023-03-16T00:17:41.313Z,-0.30
2023-03-16T00:20:13.429Z,-0.40
2023-03-16T00:22:41.947Z,-0.40
2023-03-16T00:25:11.321Z,-0.40
2023-03-16T00:27:40.099Z,-0.40
2023-03-16T00:30:10.383Z,-0.50
2023-03-16T00:32:39.823Z,-0.50
2023-03-16T00:35:09.655Z,-0.50
2023-03-16T00:37:40.017Z,-0.50
2023-03-16T00:40:13.680Z,-0.50
2023-03-16T00:42:41.972Z,-0.50
2023-03-16T00:45:11.977Z,-0.60
2023-03-16T00:47:40.134Z,-0.60
2023-03-16T00:50:09.450Z,-0.60
2023-03-16T00:52:38.979Z,-0.60
2023-03-16T00:55:08.478Z,-0.60
2023-03-16T00:57:36.743Z,-0.60
2023-03-16T01:00:14.837Z,-0.60
2023-03-16T01:02:45.193Z,-0.60
2023-03-16T01:05:14.081Z,-0.60
2023-03-16T01:07:45.282Z,-0.60
2023-03-16T01:10:14.759Z,-0.60
2023-03-16T01:12:45.421Z,-0.60
2023-03-16T01:15:13.681Z,-0.60
2023-03-16T01:17:42.236Z,-0.60
2023-03-16T01:20:14.945Z,-0.60
2023-03-16T01:22:44.587Z,-0.60
2023-03-16T01:25:14.640Z,-0.60
2023-03-16T01:27:43.659Z,-0.60
2023-03-16T01:30:13.786Z,-0.60
2023-03-16T01:32:43.359Z,-0.70
2023-03-16T01:35:14.547Z,-0.70
2023-03-16T01:37:44.319Z,-0.70
2023-03-16T01:40:18.801Z,-0.70
2023-03-16T01:42:48.667Z,-0.70
2023-03-16T01:46:18.231Z,-0.70
2023-03-16T01:49:08.391Z,-0.80
2023-03-16T01:51:43.985Z,-0.80
2023-03-16T01:54:23.005Z,-0.80
2023-03-16T01:56:58.091Z,-0.80
2023-03-16T01:59:31.510Z,-0.80
2023-03-16T02:02:00.278Z,-0.80
2023-03-16T02:04:45.982Z,-0.80
2023-03-16T02:07:19.578Z,-0.80
2023-03-16T02:09:53.297Z,-0.80
2023-03-16T02:12:22.749Z,-0.90
2023-03-16T02:14:55.340Z,-0.90
2023-03-16T02:17:27.701Z,-0.90
2023-03-16T02:20:13.654Z,-1.00
2023-03-16T02:22:47.891Z,-0.90
2023-03-16T02:25:20.310Z,-1.00
2023-03-16T02:27:59.514Z,-1.00
2023-03-16T02:30:30.497Z,-1.00
2023-03-16T02:33:05.147Z,-1.10
2023-03-16T02:35:33.647Z,-1.10
2023-03-16T02:38:03.289Z,-1.10
2023-03-16T02:40:38.120Z,-1.10
2023-03-16T02:43:16.797Z,-1.20
2023-03-16T02:45:58.538Z,-1.20
2023-03-16T02:48:33.249Z,-1.20
2023-03-16T02:51:01.514Z,-1.20
2023-03-16T02:53:29.713Z,-1.20
2023-03-16T02:55:59.350Z,-1.30
2023-03-16T02:58:27.645Z,-1.30
2023-03-16T03:00:57.735Z,-1.30
2023-03-16T03:03:26.249Z,-1.30
2023-03-16T03:05:54.523Z,-1.20
2023-03-16T03:08:23.560Z,-1.20
2023-03-16T03:10:52.434Z,-1.20
2023-03-16T03:13:20.657Z,-1.30
2023-03-16T03:15:48.861Z,-1.30
2023-03-16T03:18:18.488Z,-1.30
2023-03-16T03:20:46.792Z,-1.30
2023-03-16T03:23:16.294Z,-1.30
2023-03-16T03:25:45.353Z,-1.30
2023-03-16T03:28:15.250Z,-1.30
2023-03-16T03:30:43.837Z,-1.30
2023-03-16T03:33:12.952Z,-1.30
2023-03-16T03:35:43.010Z,-1.30
2023-03-16T03:38:11.668Z,-1.30
2023-03-16T03:40:40.959Z,-1.30
2023-03-16T03:43:09.165Z,-1.30
2023-03-16T03:45:42.190Z,-1.30
2023-03-16T03:48:10.844Z,-1.30
2023-03-16T03:50:40.642Z,-1.30
2023-03-16T03:53:36.236Z,-1.30
2023-03-16T03:56:16.233Z,-1.30
2023-03-16T03:58:44.474Z,-1.30
2023-03-16T04:01:16.388Z,-1.20
2023-03-16T04:03:45.993Z,-1.20
2023-03-16T04:06:16.852Z,-1.10
2023-03-16T04:08:46.412Z,-1.00
2023-03-16T04:11:19.466Z,-0.90
2023-03-16T04:13:47.895Z,-0.80
2023-03-16T04:16:16.242Z,-0.60
2023-03-16T04:18:46.197Z,-0.50
2023-03-16T04:21:17.757Z,-0.40
2023-03-16T04:23:54.246Z,-0.30
2023-03-16T04:26:26.412Z,-0.20
2023-03-16T04:28:55.285Z,-0.20
2023-03-16T04:31:23.990Z,-0.10
2023-03-16T04:33:54.490Z,-0.10
2023-03-16T04:36:24.471Z,-0.10
2023-03-16T04:38:55.655Z,-0.10
2023-03-16T04:41:24.782Z,-0.10
2023-03-16T04:43:59.885Z,-0.10
2023-03-16T04:46:29.549Z,-0.10
2023-03-16T04:48:59.945Z,-0.10
2023-03-16T04:51:30.238Z,-0.10
2023-03-16T04:54:08.140Z,0.00
2023-03-16T04:56:41.532Z,0.00
2023-03-16T04:59:17.863Z,0.00
2023-03-16T05:01:51.674Z,0.00
2023-03-16T05:04:21.911Z,0.00
2023-03-16T05:06:50.549Z,0.10
2023-03-16T05:09:24.217Z,0.10
2023-03-16T05:11:52.610Z,0.10
2023-03-16T05:14:20.896Z,0.20
2023-03-16T05:17:15.587Z,0.20
2023-03-16T05:19:46.152Z,0.30
2023-03-16T05:22:15.910Z,0.30
2023-03-16T05:25:03.878Z,0.40
2023-03-16T05:27:34.216Z,0.40
2023-03-16T05:30:03.860Z,0.50
2023-03-16T05:32:33.706Z,0.50
2023-03-16T05:35:03.170Z,0.50
2023-03-16T05:37:31.910Z,0.60
2023-03-16T05:40:01.587Z,0.60
2023-03-16T05:42:30.072Z,0.70
2023-03-16T05:45:02.550Z,0.70
2023-03-16T05:47:38.284Z,0.70
2023-03-16T05:50:11.432Z,0.60
2023-03-16T05:52:44.548Z,0.70
2023-03-16T05:55:20.843Z,0.70
2023-03-16T05:57:55.457Z,0.70
2023-03-16T06:00:27.604Z,0.70
2023-03-16T06:03:08.686Z,0.80
2023-03-16T06:05:39.403Z,1.00
2023-03-16T06:08:09.167Z,1.20
2023-03-16T06:10:40.218Z,1.20
2023-03-16T06:13:08.724Z,1.30
2023-03-16T06:15:38.013Z,1.40
2023-03-16T06:18:06.458Z,1.50
2023-03-16T06:20:35.491Z,1.70
2023-03-16T06:23:04.435Z,1.90
2023-03-16T06:25:33.260Z,2.30
2023-03-16T06:28:03.070Z,2.90
2023-03-16T06:30:31.391Z,3.40
2023-03-16T06:33:00.302Z,3.50
2023-03-16T06:35:28.646Z,3.70
2023-03-16T06:38:18.060Z,4.10
2023-03-16T06:40:56.383Z,4.60
2023-03-16T06:43:26.680Z,5.10
2023-03-16T06:45:55.535Z,5.50
2023-03-16T06:48:24.532Z,6.00
2023-03-16T06:50:53.079Z,6.30
2023-03-16T06:53:27.104Z,6.70
2023-03-16T06:55:57.112Z,7.10
2023-03-16T06:58:29.004Z,7.40
2023-03-16T07:00:57.290Z,7.50
2023-03-16T07:03:25.580Z,7.60
2023-03-16T07:05:59.766Z,7.60
2023-03-16T07:08:28.126Z,7.60
2023-03-16T07:10:57.763Z,7.80
2023-03-16T07:13:25.999Z,7.90
2023-03-16T07:15:55.579Z,8.10
2023-03-16T07:18:26.143Z,8.40
2023-03-16T07:20:55.547Z,8.70
2023-03-16T07:23:26.824Z,8.80
2023-03-16T07:26:00.744Z,9.00
2023-03-16T07:28:29.635Z,9.20
2023-03-16T07:31:04.191Z,9.50
2023-03-16T07:33:38.671Z,10.00
2023-03-16T07:36:10.801Z,10.10
2023-03-16T07:38:43.858Z,9.60
2023-03-16T07:41:14.029Z,9.70
2023-03-16T07:43:44.012Z,9.80
2023-03-16T07:46:13.841Z,10.00
2023-03-16T07:48:43.615Z,10.40
2023-03-16T07:51:14.691Z,10.50
2023-03-16T07:53:46.820Z,10.60
2023-03-16T07:56:33.722Z,10.90
2023-03-16T07:59:13.635Z,10.90
2023-03-16T08:01:46.280Z,11.00
2023-03-16T08:04:14.687Z,11.40
2023-03-16T08:06:43.350Z,11.80
2023-03-16T08:09:11.785Z,12.30
2023-03-16T08:11:42.859Z,13.00
2023-03-16T08:14:11.725Z,13.30
2023-03-16T08:16:59.454Z,13.70
2023-03-16T08:19:29.092Z,14.00
2023-03-16T08:22:02.086Z,14.50
2023-03-16T08:24:39.862Z,14.80
2023-03-16T08:27:12.011Z,15.00
2023-03-16T08:29:43.262Z,15.30
2023-03-16T08:32:18.278Z,16.00
2023-03-16T08:34:48.353Z,16.20
2023-03-16T08:37:17.350Z,16.80
2023-03-16T08:39:46.958Z,17.00
2023-03-16T08:42:17.619Z,17.30
2023-03-16T08:44:50.739Z,17.40
2023-03-16T08:47:20.269Z,17.70
2023-03-16T08:49:49.163Z,18.10
2023-03-16T08:52:18.193Z,18.50
2023-03-16T08:55:01.418Z,18.40
2023-03-16T08:57:30.031Z,18.40
2023-03-16T08:59:58.248Z,18.00
2023-03-16T09:02:27.983Z,18.80
2023-03-16T09:04:56.288Z,19.60
2023-03-16T09:07:24.841Z,19.60
2023-03-16T09:09:53.018Z,19.90
2023-03-16T09:12:22.208Z,20.00
2023-03-16T09:14:50.340Z,19.10
2023-03-16T09:17:18.618Z,19.20
2023-03-16T09:19:51.668Z,20.00
2023-03-16T09:22:20.534Z,20.20
2023-03-16T09:24:49.595Z,20.50
2023-03-16T09:27:18.622Z,20.70
2023-03-16T09:29:47.423Z,21.10
2023-03-16T09:32:16.219Z,21.30
2023-03-16T09:34:44.830Z,21.00
2023-03-16T09:37:14.655Z,20.70
2023-03-16T09:39:43.318Z,20.20
2023-03-16T09:42:19.247Z,19.60
2023-03-16T09:45:00.728Z,19.70
2023-03-16T09:47:32.805Z,19.40
2023-03-16T09:50:06.168Z,18.40
2023-03-16T09:52:45.700Z,17.20
2023-03-16T09:55:27.235Z,16.80
2023-03-16T09:57:56.194Z,16.30
2023-03-16T10:00:28.534Z,16.10
2023-03-16T10:03:10.419Z,15.80
2023-03-16T10:05:39.563Z,15.80
2023-03-16T10:08:18.499Z,16.10
2023-03-16T10:11:06.303Z,16.10
2023-03-16T10:13:43.804Z,16.60
2023-03-16T10:16:19.373Z,16.90
2023-03-16T10:18:52.186Z,17.40
2023-03-16T10:21:22.794Z,17.30
2023-03-16T10:23:54.051Z,17.80
2023-03-16T10:26:27.579Z,17.60
2023-03-16T10:28:55.721Z,17.70
2023-03-16T10:31:24.955Z,17.70
2023-03-16T10:33:59.427Z,18.10
2023-03-16T10:36:33.560Z,18.40
2023-03-16T10:39:06.968Z,18.20
2023-03-16T10:41:37.833Z,17.80
2023-03-16T10:44:13.755Z,17.70
2023-03-16T10:46:48.119Z,17.40
2023-03-16T10:49:25.745Z,17.00
2023-03-16T10:52:00.461Z,16.50
2023-03-16T10:54:35.862Z,16.70
2023-03-16T10:57:16.679Z,17.20
2023-03-16T10:59:49.735Z,16.90
2023-03-16T11:02:22.653Z,17.30
2023-03-16T11:04:51.079Z,17.90
2023-03-16T11:07:24.075Z,17.90
2023-03-16T11:09:55.899Z,17.90
2023-03-16T11:12:28.764Z,18.00
2023-03-16T11:15:09.397Z,18.40
2023-03-16T11:17:47.024Z,18.60
2023-03-16T11:20:19.620Z,19.00
2023-03-16T11:22:49.479Z,19.10
2023-03-16T11:25:28.952Z,19.20
2023-03-16T11:28:13.039Z,20.00
2023-03-16T11:30:44.741Z,20.60
2023-03-16T11:33:15.761Z,20.50
2023-03-16T11:35:58.800Z,20.10
2023-03-16T11:38:36.107Z,20.40
2023-03-16T11:41:11.412Z,20.50
2023-03-16T11:43:54.751Z,20.90
2023-03-16T11:46:26.489Z,20.20
2023-03-16T11:49:50.512Z,20.60
2023-03-16T11:52:34.062Z,20.90
2023-03-16T11:55:17.798Z,20.00
2023-03-16T11:57:59.177Z,19.70
2023-03-16T12:00:37.322Z,20.20
2023-03-16T12:04:14.088Z,19.80
2023-03-16T12:07:03.226Z,20.40
2023-03-16T12:10:20.343Z,20.20
2023-03-16T12:13:30.868Z,20.60
2023-03-16T12:16:05.672Z,21.10
2023-03-16T12:18:44.618Z,21.30
2023-03-16T12:21:17.188Z,21.40
2023-03-16T12:23:53.476Z,21.00
2023-03-16T12:26:26.452Z,20.90
2023-03-16T12:28:57.025Z,20.80
2023-03-16T12:31:37.512Z,21.00
2023-03-16T12:34:20.598Z,20.70
2023-03-16T12:37:06.522Z,20.90
2023-03-16T12:40:10.623Z,21.20
2023-03-16T12:43:27.467Z,21.40
2023-03-16T12:46:06.076Z,21.00
2023-03-16T12:48:39.804Z,21.30
2023-03-16T12:51:08.213Z,21.40
2023-03-16T12:53:46.695Z,22.10
2023-03-16T12:56:17.916Z,21.60
2023-03-16T12:58:49.251Z,22.10
2023-03-16T13:01:21.816Z,20.80
2023-03-16T13:03:52.076Z,19.60
2023-03-16T13:06:24.859Z,19.30
2023-03-16T13:08:59.724Z,19.40
2023-03-16T13:11:28.995Z,19.70
2023-03-16T13:14:11.264Z,19.40
2023-03-16T13:16:41.350Z,19.90
2023-03-16T13:19:27.543Z,20.40
2023-03-16T13:22:18.535Z,21.20
2023-03-16T13:24:54.938Z,21.90
2023-03-16T13:27:28.320Z,20.90
2023-03-16T13:29:59.092Z,20.10
2023-03-16T13:32:34.980Z,19.40
2023-03-16T13:35:09.838Z,19.70
2023-03-16T13:37:39.739Z,20.60
2023-03-16T13:40:21.361Z,20.40
2023-03-16T13:42:53.296Z,20.40
2023-03-16T13:45:25.055Z,20.20
2023-03-16T13:47:54.950Z,20.40
2023-03-16T13:50:23.560Z,20.50
2023-03-16T13:53:00.571Z,20.90
2023-03-16T13:55:33.979Z,20.90
2023-03-16T13:58:02.790Z,21.20
2023-03-16T14:00:37.008Z,21.00
2023-03-16T14:03:17.714Z,20.30
2023-03-16T14:05:47.494Z,19.70
2023-03-16T14:08:21.151Z,19.20
2023-03-16T14:10:49.964Z,19.00
2023-03-16T14:13:33.411Z,19.10
2023-03-16T14:16:04.865Z,18.20
2023-03-16T14:18:38.606Z,17.80
2023-03-16T14:21:10.300Z,17.40
2023-03-16T14:23:42.386Z,16.90
2023-03-16T14:26:15.347Z,16.80
2023-03-16T14:28:57.326Z,17.30
2023-03-16T14:31:35.476Z,17.60
2023-03-16T14:34:08.867Z,17.90
2023-03-16T14:36:39.571Z,17.60
2023-03-16T14:39:17.027Z,17.30
2023-03-16T14:41:46.202Z,16.70
2023-03-16T14:44:22.877Z,16.30
2023-03-16T14:46:51.911Z,16.30
2023-03-16T14:49:29.101Z,16.40
2023-03-16T14:52:02.374Z,16.50
2023-03-16T14:54:31.238Z,16.50
2023-03-16T14:57:03.811Z,16.10
2023-03-16T14:59:32.223Z,15.90
2023-03-16T15:02:02.232Z,16.00
2023-03-16T15:04:35.643Z,16.00
2023-03-16T15:07:23.978Z,15.80
2023-03-16T15:09:55.068Z,15.50
2023-03-16T15:12:26.484Z,15.50
2023-03-16T15:15:12.361Z,15.50
2023-03-16T15:17:40.585Z,15.40
2023-03-16T15:20:13.100Z,15.00
2023-03-16T15:22:41.810Z,14.50
2023-03-16T15:25:27.211Z,14.50
2023-03-16T15:27:55.852Z,14.40
2023-03-16T15:30:26.751Z,14.20
2023-03-16T15:32:55.409Z,14.20
2023-03-16T15:35:24.971Z,14.10
2023-03-16T15:37:53.562Z,14.10
2023-03-16T15:40:25.197Z,14.00
2023-03-16T15:42:54.010Z,13.80
2023-03-16T15:45:24.090Z,13.60
2023-03-16T15:47:54.411Z,13.50
2023-03-16T15:50:25.670Z,13.40
2023-03-16T15:53:04.720Z,13.30
2023-03-16T15:55:37.753Z,13.20
2023-03-16T15:58:07.467Z,13.30
2023-03-16T16:00:38.326Z,13.30
2023-03-16T16:03:08.214Z,13.30
2023-03-16T16:05:37.784Z,13.30
2023-03-16T16:08:06.448Z,13.20
2023-03-16T16:10:36.145Z,13.20
2023-03-16T16:13:04.512Z,13.10
2023-03-16T16:15:37.472Z,13.00
2023-03-16T16:18:31.798Z,13.00
2023-03-16T16:21:03.468Z,12.90
2023-03-16T16:23:32.620Z,12.60
2023-03-16T16:26:04.817Z,12.60
2023-03-16T16:28:34.466Z,12.50
2023-03-16T16:31:03.378Z,12.40
2023-03-16T16:33:34.297Z,12.30
2023-03-16T16:36:07.318Z,12.30
2023-03-16T16:38:35.594Z,12.10
2023-03-16T16:41:09.066Z,12.00
2023-03-16T16:43:41.171Z,11.90
2023-03-16T16:46:16.494Z,11.80
2023-03-16T16:48:47.470Z,11.70
2023-03-16T16:51:19.745Z,11.60
2023-03-16T16:53:48.873Z,11.60
2023-03-16T16:56:23.005Z,11.50
2023-03-16T16:58:51.411Z,11.40
2023-03-16T17:01:27.371Z,11.40
2023-03-16T17:03:55.632Z,11.30
2023-03-16T17:06:25.547Z,11.20
2023-03-16T17:08:55.064Z,11.00
2023-03-16T17:11:26.243Z,11.00
2023-03-16T17:13:56.903Z,10.90
2023-03-16T17:16:27.803Z,10.80
2023-03-16T17:18:56.498Z,10.70
2023-03-16T17:21:31.016Z,10.60
2023-03-16T17:24:00.255Z,10.60
2023-03-16T17:26:32.822Z,10.50
2023-03-16T17:29:03.882Z,10.40
2023-03-16T17:31:36.607Z,10.30
2023-03-16T17:34:16.657Z,10.20
2023-03-16T17:36:46.823Z,10.20
2023-03-16T17:39:20.899Z,10.10
2023-03-16T17:41:50.259Z,10.10
2023-03-16T17:44:20.091Z,10.00
2023-03-16T17:46:49.338Z,9.90
2023-03-16T17:49:20.511Z,9.80
2023-03-16T17:51:50.074Z,9.80
2023-03-16T17:54:18.702Z,9.70
2023-03-16T17:56:48.811Z,9.70
2023-03-16T17:59:20.285Z,9.70
2023-03-16T18:01:48.899Z,9.70
2023-03-16T18:04:18.557Z,9.60
2023-03-16T18:06:48.112Z,9.60
2023-03-16T18:09:19.519Z,9.60
2023-03-16T18:11:50.402Z,9.50
2023-03-16T18:14:34.722Z,9.50
2023-03-16T18:17:03.534Z,9.40
2023-03-16T18:19:33.638Z,9.40
2023-03-16T18:22:01.853Z,9.40
2023-03-16T18:24:31.702Z,9.40
2023-03-16T18:27:00.137Z,9.30
2023-03-16T18:29:28.635Z,9.30
2023-03-16T18:31:59.247Z,9.30
2023-03-16T18:34:30.868Z,9.20
2023-03-16T18:37:00.729Z,9.20
2023-03-16T18:39:28.919Z,9.20
2023-03-16T18:41:58.751Z,9.10
2023-03-16T18:44:28.154Z,9.10
2023-03-16T18:47:03.329Z,9.10
2023-03-16T18:49:35.718Z,9.00
2023-03-16T18:52:05.315Z,9.00
2023-03-16T18:54:36.326Z,8.90
2023-03-16T18:57:16.381Z,8.80
2023-03-16T18:59:44.524Z,8.80
2023-03-16T19:02:29.375Z,8.80
2023-03-16T19:05:00.765Z,8.70
2023-03-16T19:07:35.020Z,8.70
2023-03-16T19:10:09.594Z,8.60
2023-03-16T19:12:39.217Z,8.60
2023-03-16T19:15:20.839Z,8.60
2023-03-16T19:17:49.647Z,8.60
2023-03-16T19:20:21.259Z,8.50
2023-03-16T19:22:51.931Z,8.50
2023-03-16T19:25:25.696Z,8.50
2023-03-16T19:27:55.716Z,8.40
2023-03-16T19:30:28.081Z,8.40
2023-03-16T19:32:57.728Z,8.40
2023-03-16T19:35:44.363Z,8.30
2023-03-16T19:38:17.101Z,8.30
2023-03-16T19:40:45.941Z,8.30
2023-03-16T19:43:19.866Z,8.30
2023-03-16T19:45:50.089Z,8.30
2023-03-16T19:48:22.570Z,8.20
2023-03-16T19:50:52.018Z,8.20
2023-03-16T19:53:23.084Z,8.20
2023-03-16T19:55:53.610Z,8.20
2023-03-16T19:58:31.406Z,8.10
2023-03-16T20:01:01.134Z,8.20
2023-03-16T20:03:29.759Z,8.20
2023-03-16T20:05:58.099Z,8.20
2023-03-16T20:08:28.632Z,8.10
2023-03-16T20:11:04.426Z,8.20
2023-03-16T20:13:35.426Z,8.10
2023-03-16T20:16:04.396Z,8.10
2023-03-16T20:18:32.927Z,8.00
2023-03-16T20:21:01.179Z,8.00
2023-03-16T20:23:31.223Z,8.00
2023-03-16T20:26:03.032Z,8.00
2023-03-16T20:28:36.755Z,8.00
2023-03-16T20:31:08.390Z,8.00
2023-03-16T20:33:36.753Z,8.00
2023-03-16T20:36:05.914Z,8.00
2023-03-16T20:38:34.099Z,7.90
2023-03-16T20:41:02.669Z,7.90
2023-03-16T20:43:33.814Z,7.80
2023-03-16T20:46:04.715Z,7.80
2023-03-16T20:48:34.130Z,7.80
2023-03-16T20:51:02.743Z,7.80
2023-03-16T20:53:31.230Z,7.70
2023-03-16T20:55:59.562Z,7.70
2023-03-16T20:58:29.171Z,7.70
2023-03-16T21:01:00.885Z,7.70
2023-03-16T21:03:33.361Z,7.70
2023-03-16T21:06:01.744Z,7.70
2023-03-16T21:08:29.932Z,7.70
2023-03-16T21:10:59.903Z,7.80
2023-03-16T21:13:33.278Z,7.70
2023-03-16T21:16:04.353Z,7.80
2023-03-16T21:18:32.970Z,7.80
2023-03-16T21:21:01.795Z,7.80
2023-03-16T21:23:30.076Z,7.80
2023-03-16T21:26:03.148Z,7.80
2023-03-16T21:28:35.248Z,7.70
2023-03-16T21:31:06.675Z,7.70
2023-03-16T21:33:37.707Z,7.80
2023-03-16T21:36:08.866Z,7.90
2023-03-16T21:38:37.124Z,8.00
2023-03-16T21:41:07.163Z,8.00
2023-03-16T21:43:35.553Z,8.00
2023-03-16T21:46:06.368Z,8.00
2023-03-16T21:48:38.816Z,8.00
2023-03-16T21:51:16.746Z,8.00
2023-03-16T21:53:44.994Z,8.00
2023-03-16T21:56:16.967Z,8.00
2023-03-16T21:58:46.341Z,8.00
2023-03-16T22:01:25.720Z,8.00
2023-03-16T22:03:58.323Z,8.00
2023-03-16T22:06:28.803Z,8.00
2023-03-16T22:08:57.714Z,7.90
2023-03-16T22:11:28.567Z,7.90
2023-03-16T22:13:58.926Z,7.80
2023-03-16T22:16:33.327Z,7.80
2023-03-16T22:19:01.925Z,7.80
2023-03-16T22:21:34.508Z,7.70
2023-03-16T22:24:05.291Z,7.70
2023-03-16T22:26:33.885Z,7.70
2023-03-16T22:29:03.275Z,7.70
2023-03-16T22:31:35.898Z,7.70
2023-03-16T22:34:05.671Z,7.80
2023-03-16T22:36:34.805Z,7.80
2023-03-16T22:39:08.122Z,7.90
2023-03-16T22:41:36.305Z,7.80
2023-03-16T22:44:05.063Z,7.90
2023-03-16T22:46:34.717Z,7.80
2023-03-16T22:49:02.889Z,7.80
2023-03-16T22:51:34.532Z,7.80
2023-03-16T22:54:06.540Z,7.80
2023-03-16T22:56:36.698Z,7.70
2023-03-16T22:59:08.114Z,7.70
2023-03-16T23:01:42.458Z,7.70
2023-03-16T23:04:16.325Z,7.60
2023-03-16T23:06:44.763Z,7.70
2023-03-16T23:09:15.419Z,7.70
2023-03-16T23:11:46.366Z,7.60
2023-03-16T23:14:17.456Z,7.60
2023-03-16T23:16:48.281Z,7.70
2023-03-16T23:19:25.650Z,7.70
2023-03-16T23:21:56.199Z,7.70
2023-03-16T23:24:24.424Z,7.70
2023-03-16T23:26:53.978Z,7.70
2023-03-16T23:29:23.594Z,7.60
2023-03-16T23:31:53.872Z,7.60
2023-03-16T23:34:24.535Z,7.60
2023-03-16T23:36:52.988Z,7.60
2023-03-16T23:39:21.403Z,7.60
2023-03-16T23:41:50.943Z,7.50
2023-03-16T23:44:22.604Z,7.50
2023-03-16T23:46:52.410Z,7.50
2023-03-16T23:49:23.415Z,7.40
2023-03-16T23:51:52.209Z,7.30
2023-03-16T23:54:24.040Z,7.30
2023-03-16T23:56:52.720Z,7.30
2023-03-16T23:59:23.295Z,7.30
